Time;durP1;ratioP1;P1;durP2;ratioP2;P2;SDS_P1;SDS_P2;PMS_P1;PMS_P2;Temp;Humidity;BMP_temperature;BMP_pressure;BME280_temperature;BME280_humidity;BME280_pressure;Samples;Min_cycle;Max_cycle;Signal;HPM_P1;HPM_P2
2021/04/19 00:00:36;;;;;;;15.40;13.60;;;;;;;9.30;79.40;100709.77;105513;1107;77829;-59
2021/04/19 00:02:55;;;;;;;15.10;12.20;;;;;;;9.28;79.35;100708.27;105418;1108;77614;-59
2021/04/19 00:05:04;;;;;;;14.90;13.10;;;;;;;9.25;79.36;100705.91;105448;1108;78029;-59
2021/04/19 00:07:10;;;;;;;15.30;13.10;;;;;;;9.22;79.79;100703.55;105513;1102;76933;-64
2021/04/19 00:09:15;;;;;;;14.60;12.80;;;;;;;9.11;79.88;100704.77;105444;1108;77952;-65
2021/04/19 00:11:21;;;;;;;14.90;12.70;;;;;;;9.09;79.62;100700.56;105452;1108;77661;-65
2021/04/19 00:13:27;;;;;;;16.80;13.10;;;;;;;9.02;79.81;100702.25;105503;1101;76672;-59
2021/04/19 00:15:32;;;;;;;14.20;11.90;;;;;;;8.94;79.79;100692.34;105463;1107;78827;-64
2021/04/19 00:17:38;;;;;;;15.20;12.80;;;;;;;8.86;79.65;100687.81;105470;1107;78832;-59
2021/04/19 00:19:46;;;;;;;16.30;12.90;;;;;;;8.84;79.77;100692.51;105418;1103;78490;-59
2021/04/19 00:21:51;;;;;;;15.60;12.90;;;;;;;8.83;79.89;100693.55;105456;1107;78240;-60
2021/04/19 00:23:59;;;;;;;14.90;12.40;;;;;;;8.78;79.74;100689.68;105433;1108;77559;-60
2021/04/19 00:26:04;;;;;;;14.70;12.50;;;;;;;8.72;79.67;100696.59;105450;1108;79726;-61
2021/04/19 00:28:09;;;;;;;15.60;11.70;;;;;;;8.67;79.78;100690.88;105445;1108;79181;-65
2021/04/19 00:30:17;;;;;;;15.10;12.60;;;;;;;8.62;79.66;100693.23;105415;1108;77818;-65
2021/04/19 00:32:22;;;;;;;14.00;12.50;;;;;;;8.54;79.78;100687.02;104804;1111;79514;-64
2021/04/19 00:34:27;;;;;;;14.40;12.40;;;;;;;8.51;79.98;100690.89;105454;1108;79410;-65
2021/04/19 00:36:33;;;;;;;15.90;12.40;;;;;;;8.44;79.81;100680.94;105447;1107;77887;-65
2021/04/19 00:38:38;;;;;;;18.10;13.00;;;;;;;8.40;79.80;100685.84;105429;1108;77971;-61
2021/04/19 00:40:44;;;;;;;15.20;12.20;;;;;;;8.35;79.95;100680.09;105428;1108;78066;-61
2021/04/19 00:42:52;;;;;;;17.10;13.40;;;;;;;8.34;80.21;100680.28;105405;1108;78434;-64
2021/04/19 00:44:57;;;;;;;14.40;12.90;;;;;;;8.30;80.03;100679.77;105471;1101;77136;-64
2021/04/19 00:47:03;;;;;;;15.50;12.20;;;;;;;8.25;79.71;100688.31;105438;1108;78503;-61
2021/04/19 00:49:08;;;;;;;15.90;13.10;;;;;;;8.22;79.97;100698.56;105434;1108;78473;-60
2021/04/19 00:51:13;;;;;;;16.40;12.80;;;;;;;8.16;79.78;100689.31;105451;1108;78128;-58
2021/04/19 00:53:18;;;;;;;15.40;13.60;;;;;;;8.10;80.13;100695.35;105456;1108;77219;-59
2021/04/19 00:55:26;;;;;;;17.50;14.00;;;;;;;8.06;80.14;100701.24;105446;1108;78232;-58
2021/04/19 00:57:32;;;;;;;19.80;13.90;;;;;;;8.00;80.17;100688.45;104778;1111;78672;-58
2021/04/19 00:59:40;;;;;;;15.70;13.70;;;;;;;7.92;80.20;100702.73;105432;1107;78445;-58
2021/04/19 01:01:47;;;;;;;16.40;14.30;;;;;;;7.83;80.05;100703.70;105394;1107;78683;-59
2021/04/19 01:03:55;;;;;;;15.90;13.10;;;;;;;7.76;80.18;100702.69;105434;1108;77450;-59
2021/04/19 01:06:00;;;;;;;14.70;12.90;;;;;;;7.70;80.20;100698.81;105449;1108;78729;-59
2021/04/19 01:08:07;;;;;;;14.80;12.90;;;;;;;7.65;80.18;100695.77;105441;1108;78975;-59
2021/04/19 01:10:15;;;;;;;15.00;12.80;;;;;;;7.60;80.01;100699.95;105462;1107;77076;-58
2021/04/19 01:12:20;;;;;;;14.50;12.10;;;;;;;7.47;80.61;100703.08;105465;1108;79204;-58
2021/04/19 01:14:25;;;;;;;13.50;11.90;;;;;;;7.42;80.31;100699.20;105440;1103;78403;-60
2021/04/19 01:16:30;;;;;;;14.10;12.00;;;;;;;7.37;80.38;100701.53;105451;1108;78633;-59
2021/04/19 01:18:35;;;;;;;15.60;12.50;;;;;;;7.35;80.69;100704.39;105459;1108;78791;-59
2021/04/19 01:20:42;;;;;;;14.70;12.50;;;;;;;7.36;80.40;100699.87;105427;1108;79665;-59
2021/04/19 01:22:47;;;;;;;16.20;14.40;;;;;;;7.37;80.72;100704.22;105463;1108;78088;-62
2021/04/19 01:24:52;;;;;;;19.60;15.10;;;;;;;7.35;80.82;100699.02;105477;1108;77572;-62
2021/04/19 01:27:00;;;;;;;17.10;14.00;;;;;;;7.27;80.60;100703.51;104749;1110;77428;-61
2021/04/19 01:29:05;;;;;;;15.60;12.70;;;;;;;7.20;80.84;100695.23;104748;1110;78654;-62
2021/04/19 01:31:10;;;;;;;16.90;12.30;;;;;;;7.19;80.69;100707.00;104775;1110;77979;-62
2021/04/19 01:33:17;;;;;;;14.30;12.20;;;;;;;7.18;80.90;100697.25;105400;1108;78787;-58
2021/04/19 01:35:22;;;;;;;14.80;13.00;;;;;;;7.12;80.91;100698.73;105432;1108;78106;-59
2021/04/19 01:37:27;;;;;;;17.30;13.00;;;;;;;7.07;80.74;100701.05;105446;1107;78148;-62
2021/04/19 01:39:33;;;;;;;15.40;12.60;;;;;;;7.01;80.36;100701.69;105458;1108;78436;-62
2021/04/19 01:41:38;;;;;;;16.00;12.80;;;;;;;6.98;80.69;100709.21;105463;1108;77417;-62
2021/04/19 01:43:44;;;;;;;14.50;12.40;;;;;;;6.95;80.66;100707.69;105442;1108;78884;-58
2021/04/19 01:45:50;;;;;;;16.60;13.40;;;;;;;6.91;80.94;100705.48;105450;1107;78705;-58
2021/04/19 01:47:56;;;;;;;17.80;13.10;;;;;;;6.84;80.73;100701.77;104738;1110;78688;-62
2021/04/19 01:50:06;;;;;;;16.40;13.30;;;;;;;6.79;80.89;100706.73;105426;1108;78739;-62
2021/04/19 01:52:11;;;;;;;16.00;13.40;;;;;;;6.76;80.74;100702.53;105459;1108;78715;-58
2021/04/19 01:54:16;;;;;;;16.80;13.50;;;;;;;6.70;80.80;100702.34;105430;1108;78060;-58
2021/04/19 01:56:24;;;;;;;14.70;12.00;;;;;;;6.65;80.61;100704.66;105474;1107;77504;-58
2021/04/19 01:58:34;;;;;;;15.40;13.30;;;;;;;6.65;80.77;100701.97;105456;1102;77713;-58
2021/04/19 02:00:43;;;;;;;16.20;13.80;;;;;;;6.62;80.99;100704.96;105403;1108;77221;-58
2021/04/19 02:02:56;;;;;;;16.50;13.30;;;;;;;6.58;80.81;100708.94;105444;1108;78969;-59
2021/04/19 02:05:15;;;;;;;16.30;13.40;;;;;;;6.52;80.84;100705.04;105468;1108;77936;-58
2021/04/19 02:07:31;;;;;;;16.30;12.20;;;;;;;6.45;80.75;100704.84;105464;1108;78801;-62
2021/04/19 02:09:53;;;;;;;14.90;12.80;;;;;;;6.40;80.98;100706.30;104794;1109;77627;-63
2021/04/19 02:12:08;;;;;;;16.60;12.50;;;;;;;6.37;81.10;100695.88;105467;1108;77836;-60
2021/04/19 02:14:34;;;;;;;14.50;12.00;;;;;;;6.32;81.05;100701.69;105443;1108;77657;-58
2021/04/19 02:16:55;;;;;;;17.30;13.00;;;;;;;6.29;81.30;100703.86;105508;1102;76600;-58
2021/04/19 02:19:10;;;;;;;15.90;11.80;;;;;;;6.25;80.93;100705.15;105456;1108;78080;-58
2021/04/19 02:21:23;;;;;;;14.20;11.80;;;;;;;6.18;80.93;100701.41;105466;1107;78546;-59
2021/04/19 02:23:32;;;;;;;15.30;12.80;;;;;;;6.12;80.94;100697.50;105434;1108;78858;-59
2021/04/19 02:25:41;;;;;;;16.80;13.90;;;;;;;6.10;81.04;100695.97;105451;1108;77862;-59
2021/04/19 02:27:51;;;;;;;15.70;12.80;;;;;;;6.06;81.12;100694.58;105424;1108;77023;-62
2021/04/19 02:29:59;;;;;;;14.10;11.90;;;;;;;6.01;80.99;100691.52;105431;1108;77620;-62
2021/04/19 02:32:09;;;;;;;15.60;12.30;;;;;;;5.99;81.23;100691.66;105408;1108;78306;-61
2021/04/19 02:34:19;;;;;;;15.10;12.80;;;;;;;5.97;81.13;100696.33;105422;1108;78300;-63
2021/04/19 02:36:26;;;;;;;14.40;12.10;;;;;;;5.94;81.27;100700.16;105432;1108;78251;-62
2021/04/19 02:38:36;;;;;;;16.90;13.20;;;;;;;5.92;81.12;100696.80;104731;1110;77687;-61
2021/04/19 02:40:44;;;;;;;15.60;12.80;;;;;;;5.91;81.13;100699.62;104733;1110;78544;-61
2021/04/19 02:42:55;;;;;;;16.40;12.80;;;;;;;5.81;81.11;100691.63;105421;1108;77841;-59
2021/04/19 02:45:06;;;;;;;15.30;12.00;;;;;;;5.75;81.37;100694.91;104719;1110;78646;-59
2021/04/19 02:47:12;;;;;;;14.30;11.70;;;;;;;5.71;81.43;100695.37;105441;1108;78195;-60
2021/04/19 02:49:20;;;;;;;13.90;12.00;;;;;;;5.66;81.30;100694.98;105499;1102;78479;-59
2021/04/19 02:51:25;;;;;;;13.00;11.40;;;;;;;5.60;81.22;100691.06;105457;1108;77784;-59
2021/04/19 02:53:31;;;;;;;13.60;11.90;;;;;;;5.55;81.26;100700.55;105448;1108;77346;-61
2021/04/19 02:55:37;;;;;;;13.40;11.20;;;;;;;5.51;81.55;100696.47;105455;1108;78331;-62
2021/04/19 02:57:48;;;;;;;15.60;12.30;;;;;;;5.44;81.32;100701.56;105449;1108;79021;-61
2021/04/19 02:59:55;;;;;;;12.10;10.90;;;;;;;5.42;81.17;100691.99;105453;1108;77766;-61
2021/04/19 03:02:07;;;;;;;13.40;11.20;;;;;;;5.40;81.52;100699.34;105403;1108;78804;-61
2021/04/19 03:04:16;;;;;;;12.40;11.10;;;;;;;5.35;81.38;100697.97;105448;1108;78342;-61
2021/04/19 03:06:27;;;;;;;12.50;11.00;;;;;;;5.36;81.44;100693.44;105454;1108;78304;-61
2021/04/19 03:08:40;;;;;;;13.60;11.60;;;;;;;5.31;81.52;100693.04;105427;1108;77762;-59
2021/04/19 03:10:58;;;;;;;14.20;12.10;;;;;;;5.29;81.55;100692.35;105498;1101;78309;-59
2021/04/19 03:13:05;;;;;;;14.50;11.80;;;;;;;5.24;81.55;100695.48;104816;1110;78306;-62
2021/04/19 03:15:16;;;;;;;13.70;11.40;;;;;;;5.23;81.46;100698.30;105417;1108;77422;-61
2021/04/19 03:17:25;;;;;;;13.10;11.70;;;;;;;5.24;81.59;100698.16;105514;1102;77560;-61
2021/04/19 03:19:31;;;;;;;12.70;11.00;;;;;;;5.20;81.88;100699.44;104797;1110;78573;-61
2021/04/19 03:21:39;;;;;;;14.10;11.90;;;;;;;5.21;81.61;100701.14;104754;1110;78026;-61
2021/04/19 03:23:49;;;;;;;14.60;12.10;;;;;;;5.19;81.90;100697.73;105444;1108;77841;-61
2021/04/19 03:25:55;;;;;;;13.00;11.50;;;;;;;5.18;81.57;100696.07;105420;1108;77132;-61
2021/04/19 03:28:01;;;;;;;12.00;10.80;;;;;;;5.22;81.77;100704.63;105425;1108;78543;-59
2021/04/19 03:30:12;;;;;;;13.50;11.20;;;;;;;5.21;81.66;100701.14;104762;1110;78146;-59
2021/04/19 03:32:24;;;;;;;13.60;11.80;;;;;;;5.20;81.61;100693.23;104833;1111;78135;-59
2021/04/19 03:34:34;;;;;;;13.10;11.70;;;;;;;5.20;81.84;100693.23;104816;1110;77741;-59
2021/04/19 03:36:41;;;;;;;13.70;12.20;;;;;;;5.22;81.70;100697.45;104726;1110;77585;-59
2021/04/19 03:38:47;;;;;;;13.00;11.60;;;;;;;5.21;81.62;100701.14;105445;1108;77973;-59
2021/04/19 03:40:54;;;;;;;14.10;12.60;;;;;;;5.26;81.93;100698.00;105412;1108;76987;-59
2021/04/19 03:43:05;;;;;;;12.60;11.30;;;;;;;5.30;81.70;100708.27;104799;1110;78955;-60
2021/04/19 03:45:14;;;;;;;14.80;11.60;;;;;;;5.34;81.90;100698.10;105431;1108;77755;-61
2021/04/19 03:47:21;;;;;;;13.20;10.80;;;;;;;5.35;81.64;100705.16;105443;1108;76847;-59
2021/04/19 03:49:32;;;;;;;13.70;11.60;;;;;;;5.37;81.93;100703.16;105424;1108;79234;-60
2021/04/19 03:51:41;;;;;;;;;;;;;;;5.35;81.78;100708.69;105439;1108;78638;-59
2021/04/19 03:53:49;;;;;;;12.30;10.50;;;;;;;5.40;81.78;100699.34;105461;1108;78371;-61
2021/04/19 03:55:57;;;;;;;12.30;10.60;;;;;;;5.43;81.99;100702.58;105392;1108;76857;-61
2021/04/19 03:58:03;;;;;;;12.80;10.50;;;;;;;5.47;81.76;100700.42;105444;1108;77423;-61
2021/04/19 04:00:14;;;;;;;13.00;11.10;;;;;;;5.50;81.91;100700.98;105462;1108;78659;-61
2021/04/19 04:02:20;;;;;;;11.90;10.60;;;;;;;5.52;81.95;100706.20;105437;1108;78842;-60
2021/04/19 04:04:27;;;;;;;14.60;11.90;;;;;;;5.50;82.08;100710.84;105426;1108;78456;-61
2021/04/19 04:06:36;;;;;;;12.10;10.50;;;;;;;5.54;82.10;100712.25;105447;1108;78498;-61
2021/04/19 04:08:42;;;;;;;12.70;11.00;;;;;;;5.63;81.85;100709.49;105448;1107;76994;-59
2021/04/19 04:10:48;;;;;;;14.10;11.40;;;;;;;5.68;81.95;100709.92;105440;1108;79093;-59
2021/04/19 04:12:58;;;;;;;14.20;11.20;;;;;;;5.78;81.90;100712.52;105432;1108;77181;-59
2021/04/19 04:15:08;;;;;;;14.70;11.30;;;;;;;5.81;81.90;100722.94;105449;1108;79045;-59
2021/04/19 04:17:15;;;;;;;14.30;11.70;;;;;;;5.87;81.80;100709.83;105413;1108;78037;-59
2021/04/19 04:19:20;;;;;;;12.60;11.00;;;;;;;6.00;82.17;100711.27;105461;1102;77308;-59
2021/04/19 04:21:26;;;;;;;14.00;11.20;;;;;;;6.17;82.05;100716.66;105390;1108;78768;-60
2021/04/19 04:23:32;;;;;;;12.90;11.00;;;;;;;6.25;81.92;100721.24;105434;1107;77936;-60
2021/04/19 04:25:42;;;;;;;17.00;12.80;;;;;;;6.30;81.88;100714.42;104811;1110;78654;-60
2021/04/19 04:27:49;;;;;;;14.10;11.80;;;;;;;6.40;82.00;100725.08;105379;1108;76905;-60
2021/04/19 04:29:54;;;;;;;13.20;9.90;;;;;;;6.49;82.33;100722.30;104753;1110;79097;-60
2021/04/19 04:31:59;;;;;;;15.70;11.50;;;;;;;6.88;82.75;100719.23;105452;1107;78747;-60
2021/04/19 04:34:05;;;;;;;14.10;11.30;;;;;;;7.51;82.61;100717.05;105434;1108;78401;-60
2021/04/19 04:36:13;;;;;;;14.70;12.80;;;;;;;7.99;82.53;100713.69;105457;1108;78527;-60
2021/04/19 04:38:18;;;;;;;14.10;12.10;;;;;;;8.69;82.76;100707.70;105411;1107;78621;-60
2021/04/19 04:40:23;;;;;;;13.30;11.30;;;;;;;9.47;82.47;100691.67;105428;1108;77701;-60
2021/04/19 04:42:29;;;;;;;13.40;11.80;;;;;;;10.17;81.68;100699.73;105411;1108;77338;-62
2021/04/19 04:44:38;;;;;;;13.80;12.20;;;;;;;10.55;80.46;100706.86;105445;1108;78043;-62
2021/04/19 04:46:53;;;;;;;13.70;11.80;;;;;;;10.35;79.57;100705.69;105430;1108;78552;-62
2021/04/19 04:49:04;;;;;;;13.60;11.20;;;;;;;9.95;79.34;100704.05;105426;1108;78509;-62
2021/04/19 04:51:16;;;;;;;13.00;11.70;;;;;;;9.67;79.46;100700.19;104748;1110;78215;-62
2021/04/19 04:53:27;;;;;;;14.50;11.20;;;;;;;9.67;79.97;100703.70;105406;1108;78693;-62
2021/04/19 04:55:38;;;;;;;15.60;12.10;;;;;;;9.80;79.83;100701.30;105426;1108;77123;-63
2021/04/19 04:57:47;;;;;;;19.40;13.90;;;;;;;10.31;80.06;100712.45;105470;1108;78296;-60
2021/04/19 04:59:56;;;;;;;18.50;15.90;;;;;;;10.73;80.31;100715.50;105421;1108;78516;-60
2021/04/19 05:02:04;;;;;;;21.30;17.70;;;;;;;11.14;80.61;100716.78;105462;1108;78359;-60
2021/04/19 05:04:09;;;;;;;18.80;15.40;;;;;;;11.65;79.93;100714.14;105438;1107;78840;-61
2021/04/19 05:06:15;;;;;;;18.00;15.80;;;;;;;12.17;79.58;100712.09;105460;1108;77196;-60
2021/04/19 05:08:22;;;;;;;17.80;15.60;;;;;;;12.85;78.78;100713.38;105434;1108;78602;-59
2021/04/19 05:10:32;;;;;;;18.40;15.60;;;;;;;12.55;77.86;100717.29;105438;1108;77796;-59
2021/04/19 05:12:38;;;;;;;19.30;16.50;;;;;;;12.03;77.82;100710.27;105450;1107;79840;-63
2021/04/19 05:14:59;;;;;;;19.20;17.20;;;;;;;11.79;77.93;100713.32;104737;1110;77938;-63
2021/04/19 05:17:04;;;;;;;17.60;15.80;;;;;;;11.49;77.71;100725.17;104744;1110;79303;-62
2021/04/19 05:19:13;;;;;;;20.70;16.30;;;;;;;11.25;78.10;100713.63;104775;1110;78562;-63
2021/04/19 05:21:18;;;;;;;20.20;18.10;;;;;;;11.13;78.16;100722.36;105441;1108;79718;-62
2021/04/19 05:23:25;;;;;;;19.30;16.30;;;;;;;10.99;78.36;100721.32;105435;1108;79050;-60
2021/04/19 05:25:33;;;;;;;18.90;16.80;;;;;;;10.99;78.45;100713.20;105403;1108;78038;-60
2021/04/19 05:27:39;;;;;;;19.40;16.30;;;;;;;10.95;78.56;100720.02;105467;1108;78806;-60
2021/04/19 05:29:47;;;;;;;20.50;17.00;;;;;;;10.88;78.63;100721.77;105450;1108;78446;-60
2021/04/19 05:31:56;;;;;;;20.90;18.00;;;;;;;11.05;78.91;100725.15;104780;1111;78903;-60
2021/04/19 05:34:01;;;;;;;22.50;17.50;;;;;;;11.46;79.08;100720.13;104745;1111;79620;-60
2021/04/19 05:36:09;;;;;;;20.40;18.30;;;;;;;12.13;79.33;100718.95;105439;1108;77490;-60
2021/04/19 05:38:15;;;;;;;20.70;17.20;;;;;;;13.34;78.84;100714.19;105462;1108;77792;-60
2021/04/19 05:40:24;;;;;;;18.70;16.70;;;;;;;13.91;77.66;100700.26;105427;1108;78034;-60
2021/04/19 05:42:29;;;;;;;20.80;16.90;;;;;;;13.80;76.78;100703.55;105461;1108;78751;-60
2021/04/19 05:44:36;;;;;;;19.50;17.40;;;;;;;14.98;77.37;100705.66;104759;1110;79414;-60
2021/04/19 05:46:43;;;;;;;19.60;16.70;;;;;;;16.19;75.41;100702.17;104822;1111;79748;-65
2021/04/19 05:48:48;;;;;;;19.70;16.40;;;;;;;17.54;74.59;100705.08;104766;1110;78808;-64
2021/04/19 05:50:58;;;;;;;18.10;16.20;;;;;;;18.46;72.24;100698.41;104792;1111;78778;-64
2021/04/19 05:53:05;;;;;;;19.40;16.40;;;;;;;18.77;69.45;100709.09;105449;1108;79185;-62
2021/04/19 05:55:15;;;;;;;16.50;14.80;;;;;;;19.49;68.03;100701.53;104783;1110;77212;-62
2021/04/19 05:57:36;;;;;;;16.90;15.20;;;;;;;19.81;65.82;100705.52;105418;1107;77163;-61
2021/04/19 05:59:57;;;;;;;18.60;15.20;;;;;;;20.21;65.03;100689.90;105482;1107;79213;-58
2021/04/19 06:02:04;;;;;;;17.20;14.70;;;;;;;20.77;64.18;100696.41;105393;1108;78502;-60
2021/04/19 06:04:16;;;;;;;18.30;16.00;;;;;;;21.20;64.22;100695.78;105458;1108;79561;-67
2021/04/19 06:06:33;;;;;;;17.00;15.30;;;;;;;21.55;62.97;100697.13;105425;1108;78847;-66
2021/04/19 06:08:47;;;;;;;17.20;14.80;;;;;;;21.55;61.56;100691.63;105494;1108;77857;-66
2021/04/19 06:10:59;;;;;;;17.00;15.20;;;;;;;21.39;61.43;100688.92;105447;1108;77396;-64
2021/04/19 06:13:07;;;;;;;16.60;14.80;;;;;;;21.26;60.63;100687.34;105492;1108;78462;-66
2021/04/19 06:15:15;;;;;;;16.50;14.90;;;;;;;21.64;60.51;100689.27;105481;1108;78843;-63
2021/04/19 06:17:22;;;;;;;18.10;16.00;;;;;;;21.72;58.93;100688.83;105109;1108;78665;-67
2021/04/19 06:19:29;;;;;;;17.50;15.60;;;;;;;21.52;58.52;100688.55;105453;1108;79347;-64
2021/04/19 06:21:36;;;;;;;17.40;15.50;;;;;;;21.84;57.11;100681.27;104812;1111;78091;-67
2021/04/19 06:23:43;;;;;;;17.60;15.80;;;;;;;22.09;58.01;100691.77;105435;1108;78190;-66
2021/04/19 06:25:50;;;;;;;17.40;15.70;;;;;;;22.50;56.95;100687.52;105516;1102;78072;-67
2021/04/19 06:28:05;;;;;;;18.60;15.30;;;;;;;22.39;53.24;100692.10;105464;1107;78495;-66
2021/04/19 06:30:19;;;;;;;16.80;15.00;;;;;;;22.32;55.42;100685.98;105534;1101;77248;-66
2021/04/19 06:32:29;;;;;;;21.50;16.50;;;;;;;22.01;55.67;100683.97;105462;1107;79625;-66
2021/04/19 06:34:38;;;;;;;16.60;15.00;;;;;;;21.97;54.23;100689.18;105464;1108;78577;-59
2021/04/19 06:36:42;;;;;;;17.30;15.50;;;;;;;21.61;54.30;100684.28;105473;1107;78743;-67
2021/04/19 06:38:47;;;;;;;19.40;15.30;;;;;;;21.50;53.64;100691.56;105355;1107;78331;-67
2021/04/19 06:40:56;;;;;;;16.60;14.90;;;;;;;21.68;54.77;100688.50;105488;1108;77460;-71
2021/04/19 06:43:05;;;;;;;17.80;16.00;;;;;;;21.84;54.19;100694.21;105472;1104;77444;-61
2021/04/19 06:45:20;;;;;;;15.90;14.10;;;;;;;22.86;53.54;100687.63;105466;1108;77617;-60
2021/04/19 06:47:24;;;;;;;17.20;15.40;;;;;;;23.29;52.30;100682.99;105497;1101;78629;-60
2021/04/19 06:49:37;;;;;;;20.40;15.30;;;;;;;22.84;51.26;100684.31;104710;1111;77296;-62
2021/04/19 06:51:44;;;;;;;15.50;13.90;;;;;;;22.89;51.93;100678.00;104786;1110;79350;-59
2021/04/19 06:53:53;;;;;;;14.20;12.80;;;;;;;23.02;50.99;100673.98;104759;1110;79382;-59
2021/04/19 06:55:58;;;;;;;16.60;14.90;;;;;;;23.49;50.33;100675.69;104850;1108;78931;-59
2021/04/19 06:58:07;;;;;;;16.20;14.20;;;;;;;23.70;49.56;100676.64;105364;1108;79609;-59
2021/04/19 07:00:14;;;;;;;15.30;13.50;;;;;;;23.27;48.59;100671.38;105336;1108;77282;-59
2021/04/19 07:02:25;;;;;;;15.50;14.00;;;;;;;22.47;49.77;100672.36;104727;1110;79240;-59
2021/04/19 07:04:31;;;;;;;14.70;13.30;;;;;;;22.11;49.67;100673.11;104823;1110;77070;-59
2021/04/19 07:06:40;;;;;;;14.10;12.80;;;;;;;22.04;49.55;100678.80;105420;1108;79056;-66
2021/04/19 07:08:51;;;;;;;15.00;13.00;;;;;;;22.19;49.94;100675.39;105449;1107;79431;-67
2021/04/19 07:11:02;;;;;;;14.00;12.60;;;;;;;22.55;49.69;100665.57;105481;1107;79160;-68
2021/04/19 07:13:13;;;;;;;14.60;13.10;;;;;;;22.86;49.34;100679.36;105439;1108;78961;-59
2021/04/19 07:15:22;;;;;;;14.10;12.90;;;;;;;23.41;47.52;100678.95;105436;1107;78083;-61
2021/04/19 07:17:27;;;;;;;14.20;12.90;;;;;;;23.81;47.91;100678.34;105458;1107;78145;-61
2021/04/19 07:19:33;;;;;;;14.70;13.40;;;;;;;23.99;47.18;100675.09;105501;1101;78821;-61
2021/04/19 07:21:41;;;;;;;12.10;10.90;;;;;;;23.97;46.44;100665.42;104785;1110;78858;-61
2021/04/19 07:23:47;;;;;;;12.70;11.50;;;;;;;23.61;46.92;100672.72;105432;1103;77599;-60
2021/04/19 07:25:58;;;;;;;13.50;12.20;;;;;;;23.18;47.26;100672.99;105444;1107;77160;-63
2021/04/19 07:28:09;;;;;;;14.00;12.70;;;;;;;23.56;47.04;100664.42;105445;1107;78453;-61
2021/04/19 07:30:19;;;;;;;14.20;12.90;;;;;;;23.38;46.33;100673.13;105465;1108;77000;-60
2021/04/19 07:32:38;;;;;;;15.00;13.50;;;;;;;23.81;46.82;100664.55;105477;1108;78935;-60
2021/04/19 07:37:13;;;;;;;14.40;13.00;;;;;;;24.08;45.16;100662.43;105440;1107;78916;-60
2021/04/19 07:39:22;;;;;;;13.40;12.10;;;;;;;23.60;46.20;100661.94;105434;1108;78734;-61
2021/04/19 07:41:47;;;;;;;12.40;11.10;;;;;;;23.60;46.03;100657.26;105470;1107;79912;-63
2021/04/19 07:43:55;;;;;;;13.40;12.20;;;;;;;24.65;46.67;100662.27;105429;1108;79474;-60
2021/04/19 07:46:07;;;;;;;14.40;12.80;;;;;;;25.30;45.08;100657.00;105458;1107;79684;-60
2021/04/19 07:48:37;;;;;;;12.90;11.60;;;;;;;25.97;44.27;100657.33;105440;1108;78595;-59
2021/04/19 07:50:43;;;;;;;12.80;11.60;;;;;;;26.38;42.16;100646.86;105428;1108;77053;-60
2021/04/19 07:52:59;;;;;;;12.10;10.90;;;;;;;26.41;41.92;100649.06;105432;1108;78357;-61
2021/04/19 07:55:16;;;;;;;12.30;11.10;;;;;;;26.18;41.92;100656.13;105432;1108;78980;-68
2021/04/19 07:57:24;;;;;;;12.10;10.80;;;;;;;26.60;42.50;100654.73;105456;1108;76873;-68
2021/04/19 07:59:32;;;;;;;11.90;10.60;;;;;;;27.42;40.95;100660.13;105471;1107;77886;-59
2021/04/19 08:02:00;;;;;;;14.80;11.80;;;;;;;27.46;41.38;100654.83;105487;1107;78732;-60
2021/04/19 08:04:09;;;;;;;10.80;9.70;;;;;;;27.40;40.33;100655.97;105476;1108;78378;-61
2021/04/19 08:06:22;;;;;;;12.00;10.90;;;;;;;27.24;39.79;100655.30;105464;1108;77441;-62
2021/04/19 08:08:31;;;;;;;;;;;;;;;27.33;39.05;100652.72;105468;1107;77599;-60
2021/04/19 08:10:42;;;;;;;10.20;9.20;;;;;;;28.10;39.09;100645.99;105448;1108;77765;-63
2021/04/19 08:13:06;;;;;;;10.50;9.50;;;;;;;28.41;38.66;100652.73;105467;1108;78343;-63
2021/04/19 08:15:20;;;;;;;10.70;9.60;;;;;;;28.40;37.66;100650.27;105480;1107;77374;-60
2021/04/19 08:17:30;;;;;;;9.80;8.50;;;;;;;28.29;37.07;100649.61;105425;1103;77546;-61
2021/04/19 08:19:40;;;;;;;9.50;8.20;;;;;;;28.43;38.42;100650.47;105467;1107;78337;-62
2021/04/19 08:21:46;;;;;;;9.40;8.50;;;;;;;28.87;37.09;100638.94;105447;1104;77109;-61
2021/04/19 08:23:51;;;;;;;11.70;9.40;;;;;;;28.59;36.84;100651.91;105020;1108;77729;-66
2021/04/19 08:25:57;;;;;;;10.40;8.90;;;;;;;28.47;34.92;100656.27;104832;1110;78404;-68
2021/04/19 08:28:08;;;;;;;9.00;8.10;;;;;;;28.56;37.30;100643.34;105449;1108;77575;-67
2021/04/19 08:30:18;;;;;;;11.10;8.80;;;;;;;28.85;35.32;100651.50;105475;1108;77494;-68
2021/04/19 08:32:26;;;;;;;10.00;8.70;;;;;;;28.46;35.52;100651.83;105411;1107;77570;-68
2021/04/19 08:34:35;;;;;;;10.60;9.60;;;;;;;27.95;33.49;100660.88;105460;1108;78949;-67
2021/04/19 08:36:44;;;;;;;11.70;10.50;;;;;;;28.17;35.49;100651.99;105441;1108;77401;-68
2021/04/19 08:38:50;;;;;;;13.50;12.30;;;;;;;28.39;35.51;100652.22;104811;1110;78664;-67
2021/04/19 08:40:58;;;;;;;12.40;11.20;;;;;;;28.63;35.00;100649.36;105449;1103;77640;-68
2021/04/19 08:43:11;;;;;;;10.90;9.50;;;;;;;28.80;34.20;100637.69;105408;1108;79335;-68
2021/04/19 08:45:18;;;;;;;11.60;10.50;;;;;;;28.96;34.77;100639.06;105464;1108;77214;-68
2021/04/19 08:47:28;;;;;;;10.40;9.40;;;;;;;28.41;34.37;100643.56;105448;1108;77852;-61
2021/04/19 08:49:34;;;;;;;9.20;8.40;;;;;;;28.20;32.75;100643.06;105479;1107;78415;-61
2021/04/19 08:51:42;;;;;;;10.50;9.30;;;;;;;27.00;32.61;100643.35;105444;1108;78050;-67
2021/04/19 08:53:51;;;;;;;12.40;8.80;;;;;;;26.47;34.92;100641.55;105483;1108;78765;-68
2021/04/19 08:55:59;;;;;;;9.50;8.60;;;;;;;26.68;34.80;100646.63;105484;1108;77409;-69
2021/04/19 08:58:10;;;;;;;8.30;7.00;;;;;;;26.78;33.74;100648.55;105456;1108;78252;-68
2021/04/19 09:02:49;;;;;;;8.90;7.20;;;;;;;28.16;33.83;100644.77;105467;1107;77607;-62
2021/04/19 09:05:11;;;;;;;8.00;7.30;;;;;;;28.23;33.82;100649.97;105447;1108;78860;-61
2021/04/19 09:07:30;;;;;;;9.40;7.20;;;;;;;27.70;32.79;100643.70;105469;1108;78291;-60
2021/04/19 09:09:42;;;;;;;7.20;6.50;;;;;;;28.01;33.41;100636.64;105454;1108;78315;-61
2021/04/19 09:11:48;;;;;;;8.90;6.80;;;;;;;28.16;32.80;100643.94;105477;1108;77378;-61
2021/04/19 09:16:09;;;;;;;7.50;6.30;;;;;;;26.92;33.17;100641.18;105424;1107;77045;-64
2021/04/19 09:18:29;;;;;;;7.60;6.30;;;;;;;26.77;32.95;100633.81;105427;1108;78130;-61
2021/04/19 09:20:49;;;;;;;7.20;6.30;;;;;;;27.45;33.54;100640.11;105487;1108;77942;-61
2021/04/19 09:23:21;;;;;;;7.60;6.00;;;;;;;27.66;30.96;100642.66;105456;1107;77920;-69
2021/04/19 09:25:25;;;;;;;8.30;5.70;;;;;;;27.55;32.62;100641.13;105483;1108;79354;-68
2021/04/19 09:27:54;;;;;;;8.20;6.50;;;;;;;27.38;31.66;100639.63;105446;1103;77592;-68
2021/04/19 09:29:59;;;;;;;5.60;5.10;;;;;;;27.00;32.00;100640.58;105491;1108;77204;-66
2021/04/19 09:32:06;;;;;;;7.50;6.50;;;;;;;26.63;30.71;100638.37;105469;1107;78635;-67
2021/04/19 09:34:15;;;;;;;6.30;5.60;;;;;;;25.82;30.62;100646.34;105456;1108;78320;-67
2021/04/19 09:36:51;;;;;;;8.80;6.50;;;;;;;25.09;33.02;100629.38;105499;1108;77674;-67
2021/04/19 09:38:57;;;;;;;8.10;6.20;;;;;;;24.29;33.37;100634.88;105482;1108;77233;-67
2021/04/19 09:41:04;;;;;;;7.10;6.40;;;;;;;24.11;33.56;100641.77;105454;1108;77754;-67
2021/04/19 09:43:09;;;;;;;7.20;6.10;;;;;;;23.37;32.94;100646.64;105454;1108;76686;-67
2021/04/19 09:45:35;;;;;;;6.50;5.90;;;;;;;23.14;34.27;100638.77;105474;1108;78760;-63
2021/04/19 09:47:53;;;;;;;6.90;5.90;;;;;;;23.09;34.71;100645.09;105501;1107;78638;-61
2021/04/19 09:50:00;;;;;;;5.80;5.30;;;;;;;22.89;35.25;100634.75;105488;1108;78745;-61
2021/04/19 09:52:11;;;;;;;7.90;5.40;;;;;;;22.90;35.61;100628.16;105468;1103;78318;-67